sensor_id;sensor_type;location;lat;lon;timestamp;pressure;altitude;pressure_sealevel;temperature
53512;BMP280;39392;52.832;13.816;2023-08-24T00:01:35;101678.72;;;26.59
53512;BMP280;39392;52.832;13.816;2023-08-24T00:04:02;101671.09;;;26.54
53512;BMP280;39392;52.832;13.816;2023-08-24T00:06:29;101673.63;;;26.56
53512;BMP280;39392;52.832;13.816;2023-08-24T00:08:55;101672.78;;;26.55
53512;BMP280;39392;52.832;13.816;2023-08-24T00:11:22;101679.13;;;26.56
53512;BMP280;39392;52.832;13.816;2023-08-24T00:13:49;101671.94;;;26.55
53512;BMP280;39392;52.832;13.816;2023-08-24T00:16:18;101676.59;;;26.54
53512;BMP280;39392;52.832;13.816;2023-08-24T00:18:46;101685.88;;;26.53
53512;BMP280;39392;52.832;13.816;2023-08-24T00:21:13;101685.00;;;26.53
53512;BMP280;39392;52.832;13.816;2023-08-24T00:23:43;101683.31;;;26.52
53512;BMP280;39392;52.832;13.816;2023-08-24T00:26:10;101681.44;;;26.52
53512;BMP280;39392;52.832;13.816;2023-08-24T00:28:37;101668.75;;;26.51
53512;BMP280;39392;52.832;13.816;2023-08-24T00:31:03;101670.81;;;26.49
53512;BMP280;39392;52.832;13.816;2023-08-24T00:33:30;101670.66;;;26.51
53512;BMP280;39392;52.832;13.816;2023-08-24T00:36:00;101671.50;;;26.51
53512;BMP280;39392;52.832;13.816;2023-08-24T00:38:27;101669.59;;;26.52
53512;BMP280;39392;52.832;13.816;2023-08-24T00:40:55;101670.22;;;26.54
53512;BMP280;39392;52.832;13.816;2023-08-24T00:43:21;101671.94;;;26.55
53512;BMP280;39392;52.832;13.816;2023-08-24T00:45:50;101670.22;;;26.54
53512;BMP280;39392;52.832;13.816;2023-08-24T00:48:18;101674.69;;;26.55
53512;BMP280;39392;52.832;13.816;2023-08-24T00:50:45;101666.44;;;26.55
53512;BMP280;39392;52.832;13.816;2023-08-24T00:53:11;101661.97;;;26.54
53512;BMP280;39392;52.832;13.816;2023-08-24T00:55:38;101670.22;;;26.54
53512;BMP280;39392;52.832;13.816;2023-08-24T00:58:05;101667.47;;;26.54
53512;BMP280;39392;52.832;13.816;2023-08-24T01:00:32;101663.03;;;26.53
53512;BMP280;39392;52.832;13.816;2023-08-24T01:02:59;101653.94;;;26.52
53512;BMP280;39392;52.832;13.816;2023-08-24T01:05:26;101659.66;;;26.51
53512;BMP280;39392;52.832;13.816;2023-08-24T01:07:53;101654.34;;;26.49
53512;BMP280;39392;52.832;13.816;2023-08-24T01:10:20;101657.09;;;26.49
53512;BMP280;39392;52.832;13.816;2023-08-24T01:13:07;101656.91;;;26.51
53512;BMP280;39392;52.832;13.816;2023-08-24T01:18:14;101651.34;;;26.44
53512;BMP280;39392;52.832;13.816;2023-08-24T01:20:42;101647.72;;;26.44
53512;BMP280;39392;52.832;13.816;2023-08-24T01:23:23;101644.97;;;26.44
53512;BMP280;39392;52.832;13.816;2023-08-24T01:26:39;101646.31;;;26.48
53512;BMP280;39392;52.832;13.816;2023-08-24T01:28:42;101645.47;;;26.47
53512;BMP280;39392;52.832;13.816;2023-08-24T01:31:09;101644.41;;;26.48
53512;BMP280;39392;52.832;13.816;2023-08-24T01:33:36;101647.16;;;26.48
53512;BMP280;39392;52.832;13.816;2023-08-24T01:36:03;101641.03;;;26.46
53512;BMP280;39392;52.832;13.816;2023-08-24T01:38:30;101641.88;;;26.47
53512;BMP280;39392;52.832;13.816;2023-08-24T01:43:28;101650.28;;;26.45
53512;BMP280;39392;52.832;13.816;2023-08-24T01:46:09;101645.63;;;26.46
53512;BMP280;39392;52.832;13.816;2023-08-24T01:48:38;101642.72;;;26.47
53512;BMP280;39392;52.832;13.816;2023-08-24T01:51:05;101647.16;;;26.48
53512;BMP280;39392;52.832;13.816;2023-08-24T01:53:31;101643.34;;;26.49
53512;BMP280;39392;52.832;13.816;2023-08-24T01:55:58;101639.75;;;26.49
53512;BMP280;39392;52.832;13.816;2023-08-24T01:58:25;101639.97;;;26.47
53512;BMP280;39392;52.832;13.816;2023-08-24T02:00:51;101635.53;;;26.46
53512;BMP280;39392;52.832;13.816;2023-08-24T02:03:18;101637.41;;;26.46
53512;BMP280;39392;52.832;13.816;2023-08-24T02:05:44;101644.41;;;26.48
53512;BMP280;39392;52.832;13.816;2023-08-24T02:08:11;101642.72;;;26.47
53512;BMP280;39392;52.832;13.816;2023-08-24T02:10:38;101642.72;;;26.47
53512;BMP280;39392;52.832;13.816;2023-08-24T02:13:04;101630.66;;;26.48
53512;BMP280;39392;52.832;13.816;2023-08-24T02:15:31;101635.31;;;26.48
53512;BMP280;39392;52.832;13.816;2023-08-24T02:17:57;101632.78;;;26.46
53512;BMP280;39392;52.832;13.816;2023-08-24T02:20:24;101635.31;;;26.48
53512;BMP280;39392;52.832;13.816;2023-08-24T02:22:52;101635.31;;;26.48
53512;BMP280;39392;52.832;13.816;2023-08-24T02:25:19;101633.41;;;26.48
53512;BMP280;39392;52.832;13.816;2023-08-24T02:27:45;101619.88;;;26.47
53512;BMP280;39392;52.832;13.816;2023-08-24T02:30:12;101623.47;;;26.47
53512;BMP280;39392;52.832;13.816;2023-08-24T02:32:39;101632.56;;;26.48
53512;BMP280;39392;52.832;13.816;2023-08-24T02:35:06;101628.97;;;26.47
53512;BMP280;39392;52.832;13.816;2023-08-24T02:37:33;101634.47;;;26.47
53512;BMP280;39392;52.832;13.816;2023-08-24T02:40:00;101634.47;;;26.47
53512;BMP280;39392;52.832;13.816;2023-08-24T02:42:27;101637.00;;;26.49
53512;BMP280;39392;52.832;13.816;2023-08-24T02:44:56;101636.38;;;26.47
53512;BMP280;39392;52.832;13.816;2023-08-24T02:47:23;101641.03;;;26.46
53512;BMP280;39392;52.832;13.816;2023-08-24T02:49:49;101638.28;;;26.46
53512;BMP280;39392;52.832;13.816;2023-08-24T02:52:16;101642.72;;;26.47
53512;BMP280;39392;52.832;13.816;2023-08-24T02:54:42;101641.88;;;26.47
53512;BMP280;39392;52.832;13.816;2023-08-24T02:57:09;101636.38;;;26.47
53512;BMP280;39392;52.832;13.816;2023-08-24T02:59:36;101631.91;;;26.46
53512;BMP280;39392;52.832;13.816;2023-08-24T03:02:02;101631.91;;;26.46
53512;BMP280;39392;52.832;13.816;2023-08-24T03:04:30;101637.59;;;26.44
53512;BMP280;39392;52.832;13.816;2023-08-24T03:06:57;101635.88;;;26.43
53512;BMP280;39392;52.832;13.816;2023-08-24T03:09:24;101630.41;;;26.43
53512;BMP280;39392;52.832;13.816;2023-08-24T03:11:50;101623.88;;;26.44
53512;BMP280;39392;52.832;13.816;2023-08-24T03:14:17;101625.75;;;26.44
53512;BMP280;39392;52.832;13.816;2023-08-24T03:16:45;101621.31;;;26.43
53512;BMP280;39392;52.832;13.816;2023-08-24T03:19:12;101624.06;;;26.43
53512;BMP280;39392;52.832;13.816;2023-08-24T03:21:40;101627.66;;;26.43
53512;BMP280;39392;52.832;13.816;2023-08-24T03:24:07;101623.00;;;26.44
53512;BMP280;39392;52.832;13.816;2023-08-24T03:26:33;101619.41;;;26.43
53512;BMP280;39392;52.832;13.816;2023-08-24T03:29:00;101616.66;;;26.43
53512;BMP280;39392;52.832;13.816;2023-08-24T03:31:26;101614.75;;;26.44
53512;BMP280;39392;52.832;13.816;2023-08-24T03:33:53;101612.00;;;26.44
53512;BMP280;39392;52.832;13.816;2023-08-24T03:36:20;101608.22;;;26.45
53512;BMP280;39392;52.832;13.816;2023-08-24T03:38:46;101598.06;;;26.45
53512;BMP280;39392;52.832;13.816;2023-08-24T03:41:13;101600.81;;;26.45
53512;BMP280;39392;52.832;13.816;2023-08-24T03:43:39;101607.38;;;26.44
53512;BMP280;39392;52.832;13.816;2023-08-24T03:46:06;101606.31;;;26.45
53512;BMP280;39392;52.832;13.816;2023-08-24T03:48:33;101604.63;;;26.44
53512;BMP280;39392;52.832;13.816;2023-08-24T03:50:59;101597.22;;;26.45
53512;BMP280;39392;52.832;13.816;2023-08-24T03:53:26;101603.75;;;26.44
53512;BMP280;39392;52.832;13.816;2023-08-24T03:55:53;101596.38;;;26.44
53512;BMP280;39392;52.832;13.816;2023-08-24T03:58:20;101591.91;;;26.43
53512;BMP280;39392;52.832;13.816;2023-08-24T04:00:47;101591.91;;;26.43
53512;BMP280;39392;52.832;13.816;2023-08-24T04:03:13;101599.13;;;26.44
53512;BMP280;39392;52.832;13.816;2023-08-24T04:05:40;101594.66;;;26.43
53512;BMP280;39392;52.832;13.816;2023-08-24T04:08:07;101597.41;;;26.43
53512;BMP280;39392;52.832;13.816;2023-08-24T04:10:34;101594.47;;;26.45
53512;BMP280;39392;52.832;13.816;2023-08-24T04:13:00;101591.72;;;26.45
53512;BMP280;39392;52.832;13.816;2023-08-24T04:15:27;101593.41;;;26.46
53512;BMP280;39392;52.832;13.816;2023-08-24T04:17:54;101595.31;;;26.45
53512;BMP280;39392;52.832;13.816;2023-08-24T04:20:20;101606.31;;;26.45
53512;BMP280;39392;52.832;13.816;2023-08-24T04:22:47;101608.03;;;26.46
53512;BMP280;39392;52.832;13.816;2023-08-24T04:25:14;101607.16;;;26.46
53512;BMP280;39392;52.832;13.816;2023-08-24T04:27:41;101606.31;;;26.45
53512;BMP280;39392;52.832;13.816;2023-08-24T04:30:08;101615.22;;;26.47
53512;BMP280;39392;52.832;13.816;2023-08-24T04:32:38;101611.63;;;26.47
53512;BMP280;39392;52.832;13.816;2023-08-24T04:35:05;101612.47;;;26.47
53512;BMP280;39392;52.832;13.816;2023-08-24T04:37:32;101607.81;;;26.48
53512;BMP280;39392;52.832;13.816;2023-08-24T04:39:58;101616.06;;;26.48
53512;BMP280;39392;52.832;13.816;2023-08-24T04:42:25;101612.25;;;26.49
53512;BMP280;39392;52.832;13.816;2023-08-24T04:44:51;101612.25;;;26.49
53512;BMP280;39392;52.832;13.816;2023-08-24T04:47:18;101611.41;;;26.48
53512;BMP280;39392;52.832;13.816;2023-08-24T04:49:44;101606.75;;;26.49
53512;BMP280;39392;52.832;13.816;2023-08-24T04:52:11;101610.16;;;26.51
53512;BMP280;39392;52.832;13.816;2023-08-24T04:54:37;101609.72;;;26.54
53512;BMP280;39392;52.832;13.816;2023-08-24T04:57:04;101607.84;;;26.54
53512;BMP280;39392;52.832;13.816;2023-08-24T04:59:30;101613.34;;;26.54
53512;BMP280;39392;52.832;13.816;2023-08-24T05:01:57;101617.97;;;26.54
53512;BMP280;39392;52.832;13.816;2023-08-24T05:04:23;101613.97;;;26.56
53512;BMP280;39392;52.832;13.816;2023-08-24T05:06:50;101620.53;;;26.55
53512;BMP280;39392;52.832;13.816;2023-08-24T05:09:16;101618.63;;;26.56
53512;BMP280;39392;52.832;13.816;2023-08-24T05:11:43;101622.84;;;26.58
53512;BMP280;39392;52.832;13.816;2023-08-24T05:14:09;101620.97;;;26.59
53512;BMP280;39392;52.832;13.816;2023-08-24T05:16:36;101615.47;;;26.59
53512;BMP280;39392;52.832;13.816;2023-08-24T05:19:03;101618.00;;;26.61
53512;BMP280;39392;52.832;13.816;2023-08-24T05:21:29;101611.66;;;26.60
53512;BMP280;39392;52.832;13.816;2023-08-24T05:23:56;101619.91;;;26.60
53512;BMP280;39392;52.832;13.816;2023-08-24T05:26:22;101619.69;;;26.62
53512;BMP280;39392;52.832;13.816;2023-08-24T05:28:52;101620.53;;;26.62
53512;BMP280;39392;52.832;13.816;2023-08-24T05:31:18;101613.13;;;26.63
53512;BMP280;39392;52.832;13.816;2023-08-24T05:33:47;101622.25;;;26.63
53512;BMP280;39392;52.832;13.816;2023-08-24T05:36:13;101622.03;;;26.65
53512;BMP280;39392;52.832;13.816;2023-08-24T05:38:40;101617.63;;;26.64
53512;BMP280;39392;52.832;13.816;2023-08-24T05:41:29;101614.88;;;26.64
53512;BMP280;39392;52.832;13.816;2023-08-24T05:43:55;101613.81;;;26.65
53512;BMP280;39392;52.832;13.816;2023-08-24T05:46:23;101625.41;;;26.67
53512;BMP280;39392;52.832;13.816;2023-08-24T05:48:50;101615.31;;;26.67
53512;BMP280;39392;52.832;13.816;2023-08-24T05:51:16;101625.41;;;26.67
53512;BMP280;39392;52.832;13.816;2023-08-24T05:53:43;101623.56;;;26.67
53512;BMP280;39392;52.832;13.816;2023-08-24T05:56:10;101628.84;;;26.69
53512;BMP280;39392;52.832;13.816;2023-08-24T05:58:36;101636.03;;;26.70
53512;BMP280;39392;52.832;13.816;2023-08-24T06:01:03;101625.88;;;26.70
53512;BMP280;39392;52.832;13.816;2023-08-24T06:03:30;101627.59;;;26.71
53512;BMP280;39392;52.832;13.816;2023-08-24T06:06:02;101626.72;;;26.71
53512;BMP280;39392;52.832;13.816;2023-08-24T06:08:30;101630.34;;;26.71
53512;BMP280;39392;52.832;13.816;2023-08-24T06:10:57;101628.44;;;26.72
53512;BMP280;39392;52.832;13.816;2023-08-24T06:13:23;101627.38;;;26.73
53512;BMP280;39392;52.832;13.816;2023-08-24T06:15:50;101621.66;;;26.74
53512;BMP280;39392;52.832;13.816;2023-08-24T06:18:16;101615.31;;;26.74
53512;BMP280;39392;52.832;13.816;2023-08-24T06:20:43;101615.13;;;26.75
53512;BMP280;39392;52.832;13.816;2023-08-24T06:23:10;101617.66;;;26.77
53512;BMP280;39392;52.832;13.816;2023-08-24T06:25:36;101615.75;;;26.77
53512;BMP280;39392;52.832;13.816;2023-08-24T06:28:03;101612.78;;;26.79
53512;BMP280;39392;52.832;13.816;2023-08-24T06:30:30;101614.50;;;26.80
53512;BMP280;39392;52.832;13.816;2023-08-24T06:33:03;101614.50;;;26.80
53512;BMP280;39392;52.832;13.816;2023-08-24T06:35:30;101608.78;;;26.81
53512;BMP280;39392;52.832;13.816;2023-08-24T06:37:56;101608.56;;;26.83
53512;BMP280;39392;52.832;13.816;2023-08-24T06:40:23;101613.03;;;26.84
53512;BMP280;39392;52.832;13.816;2023-08-24T06:42:50;101617.47;;;26.85
53512;BMP280;39392;52.832;13.816;2023-08-24T06:45:17;101619.16;;;26.86
53512;BMP280;39392;52.832;13.816;2023-08-24T06:47:44;101609.84;;;26.87
53512;BMP280;39392;52.832;13.816;2023-08-24T07:01:00;101613.88;;;26.91
53512;BMP280;39392;52.832;13.816;2023-08-24T07:03:27;101619.19;;;26.93
53512;BMP280;39392;52.832;13.816;2023-08-24T07:05:54;101629.13;;;26.94
53512;BMP280;39392;52.832;13.816;2023-08-24T07:08:20;101621.72;;;26.94
53512;BMP280;39392;52.832;13.816;2023-08-24T07:10:47;101626.16;;;26.95
53512;BMP280;39392;52.832;13.816;2023-08-24T07:13:13;101626.81;;;26.97
53512;BMP280;39392;52.832;13.816;2023-08-24T07:15:40;101622.16;;;26.98
53512;BMP280;39392;52.832;13.816;2023-08-24T07:18:06;101618.34;;;26.99
53512;BMP280;39392;52.832;13.816;2023-08-24T07:20:34;101622.78;;;27.00
53512;BMP280;39392;52.832;13.816;2023-08-24T07:23:01;101632.31;;;27.04
53512;BMP280;39392;52.832;13.816;2023-08-24T07:25:27;101626.78;;;27.04
53512;BMP280;39392;52.832;13.816;2023-08-24T07:27:54;101630.41;;;27.04
53512;BMP280;39392;52.832;13.816;2023-08-24T07:30:29;101626.78;;;27.04
53512;BMP280;39392;52.832;13.816;2023-08-24T07:33:00;101634.88;;;27.05
53512;BMP280;39392;52.832;13.816;2023-08-24T07:35:27;101625.75;;;27.05
53512;BMP280;39392;52.832;13.816;2023-08-24T07:37:53;101621.94;;;27.06
53512;BMP280;39392;52.832;13.816;2023-08-24T07:40:20;101631.91;;;27.07
53512;BMP280;39392;52.832;13.816;2023-08-24T07:42:47;101623.63;;;27.07
53512;BMP280;39392;52.832;13.816;2023-08-24T07:45:14;101628.06;;;27.08
53512;BMP280;39392;52.832;13.816;2023-08-24T07:47:41;101624.28;;;27.09
53512;BMP280;39392;52.832;13.816;2023-08-24T07:50:08;101620.66;;;27.08
53512;BMP280;39392;52.832;13.816;2023-08-24T07:52:35;101628.91;;;27.08
53512;BMP280;39392;52.832;13.816;2023-08-24T07:55:02;101625.16;;;27.10
53512;BMP280;39392;52.832;13.816;2023-08-24T07:57:30;101631.50;;;27.10
53512;BMP280;39392;52.832;13.816;2023-08-24T07:59:58;101623.25;;;27.10
53512;BMP280;39392;52.832;13.816;2023-08-24T08:02:24;101624.09;;;27.11
53512;BMP280;39392;52.832;13.816;2023-08-24T08:04:51;101621.13;;;27.12
53512;BMP280;39392;52.832;13.816;2023-08-24T08:07:18;101628.34;;;27.13
53512;BMP280;39392;52.832;13.816;2023-08-24T08:09:45;101624.72;;;27.13
53512;BMP280;39392;52.832;13.816;2023-08-24T08:12:11;101625.59;;;27.13
53512;BMP280;39392;52.832;13.816;2023-08-24T08:14:38;101623.69;;;27.14
53512;BMP280;39392;52.832;13.816;2023-08-24T08:17:04;101611.84;;;27.13
53512;BMP280;39392;52.832;13.816;2023-08-24T08:19:31;101618.19;;;27.14
53512;BMP280;39392;52.832;13.816;2023-08-24T08:21:58;101607.38;;;27.12
53512;BMP280;39392;52.832;13.816;2023-08-24T08:24:24;101606.34;;;27.13
53512;BMP280;39392;52.832;13.816;2023-08-24T08:26:51;101602.53;;;27.14
53512;BMP280;39392;52.832;13.816;2023-08-24T08:29:19;101598.94;;;27.14
53512;BMP280;39392;52.832;13.816;2023-08-24T08:31:45;101599.78;;;27.14
53512;BMP280;39392;52.832;13.816;2023-08-24T08:34:12;101605.28;;;27.14
53512;BMP280;39392;52.832;13.816;2023-08-24T08:36:39;101605.28;;;27.14
53512;BMP280;39392;52.832;13.816;2023-08-24T08:39:05;101599.78;;;27.14
53512;BMP280;39392;52.832;13.816;2023-08-24T08:41:33;101597.88;;;27.15
53512;BMP280;39392;52.832;13.816;2023-08-24T08:44:04;101593.44;;;27.14
53512;BMP280;39392;52.832;13.816;2023-08-24T08:46:31;101590.69;;;27.14
53512;BMP280;39392;52.832;13.816;2023-08-24T08:49:00;101583.44;;;27.13
53512;BMP280;39392;52.832;13.816;2023-08-24T08:51:26;101586.00;;;27.14
53512;BMP280;39392;52.832;13.816;2023-08-24T08:53:53;101591.50;;;27.14
53512;BMP280;39392;52.832;13.816;2023-08-24T08:56:20;101584.09;;;27.15
53512;BMP280;39392;52.832;13.816;2023-08-24T08:58:46;101576.91;;;27.14
53512;BMP280;39392;52.832;13.816;2023-08-24T09:01:14;101583.25;;;27.14
53512;BMP280;39392;52.832;13.816;2023-08-24T09:03:41;101578.59;;;27.15
53512;BMP280;39392;52.832;13.816;2023-08-24T09:06:09;101578.59;;;27.15
53512;BMP280;39392;52.832;13.816;2023-08-24T09:08:35;101575.84;;;27.15
53512;BMP280;39392;52.832;13.816;2023-08-24T09:11:03;101577.31;;;27.11
53512;BMP280;39392;52.832;13.816;2023-08-24T09:13:30;101573.25;;;27.06
53512;BMP280;39392;52.832;13.816;2023-08-24T09:16:04;101568.00;;;27.05
53512;BMP280;39392;52.832;13.816;2023-08-24T09:18:38;101579.19;;;27.03
53512;BMP280;39392;52.832;13.816;2023-08-24T09:21:08;101570.94;;;27.03
53512;BMP280;39392;52.832;13.816;2023-08-24T09:23:35;101569.03;;;27.04
53512;BMP280;39392;52.832;13.816;2023-08-24T09:26:02;101563.09;;;27.00
53512;BMP280;39392;52.832;13.816;2023-08-24T09:28:28;101560.56;;;26.99
53512;BMP280;39392;52.832;13.816;2023-08-24T09:30:55;101560.56;;;26.99
53512;BMP280;39392;52.832;13.816;2023-08-24T09:33:22;101552.53;;;26.97
53512;BMP280;39392;52.832;13.816;2023-08-24T09:35:52;101561.63;;;26.98
53512;BMP280;39392;52.832;13.816;2023-08-24T09:38:20;101561.84;;;26.96
53512;BMP280;39392;52.832;13.816;2023-08-24T09:40:51;101555.28;;;26.97
53512;BMP280;39392;52.832;13.816;2023-08-24T09:43:18;101558.22;;;26.96
53512;BMP280;39392;52.832;13.816;2023-08-24T09:45:54;101550.84;;;26.96
53512;BMP280;39392;52.832;13.816;2023-08-24T09:48:21;101539.84;;;26.96
53512;BMP280;39392;52.832;13.816;2023-08-24T09:50:49;101542.59;;;26.96
53512;BMP280;39392;52.832;13.816;2023-08-24T09:53:17;101544.28;;;26.97
53512;BMP280;39392;52.832;13.816;2023-08-24T09:58:20;101536.03;;;26.97
53512;BMP280;39392;52.832;13.816;2023-08-24T10:00:47;101540.47;;;26.98
53512;BMP280;39392;52.832;13.816;2023-08-24T10:03:16;101534.97;;;26.98
53512;BMP280;39392;52.832;13.816;2023-08-24T10:05:50;101528.59;;;26.98
53512;BMP280;39392;52.832;13.816;2023-08-24T10:08:29;101515.69;;;26.98
53512;BMP280;39392;52.832;13.816;2023-08-24T10:10:57;101517.59;;;26.98
53512;BMP280;39392;52.832;13.816;2023-08-24T10:13:39;101520.34;;;26.98
53512;BMP280;39392;52.832;13.816;2023-08-24T10:16:13;101517.59;;;26.98
53512;BMP280;39392;52.832;13.816;2023-08-24T10:18:40;101519.28;;;26.99
53512;BMP280;39392;52.832;13.816;2023-08-24T10:21:08;101506.38;;;26.99
53512;BMP280;39392;52.832;13.816;2023-08-24T10:23:34;101504.69;;;26.98
53512;BMP280;39392;52.832;13.816;2023-08-24T10:26:02;101505.53;;;26.99
53512;BMP280;39392;52.832;13.816;2023-08-24T10:28:30;101509.13;;;26.99
53512;BMP280;39392;52.832;13.816;2023-08-24T10:30:57;101497.06;;;27.00
53512;BMP280;39392;52.832;13.816;2023-08-24T10:33:25;101506.81;;;27.03
53512;BMP280;39392;52.832;13.816;2023-08-24T10:35:53;101510.41;;;27.03
53512;BMP280;39392;52.832;13.816;2023-08-24T10:38:23;101509.56;;;27.03
53512;BMP280;39392;52.832;13.816;2023-08-24T10:40:51;101510.41;;;27.03
53512;BMP280;39392;52.832;13.816;2023-08-24T10:43:17;101497.72;;;27.02
53512;BMP280;39392;52.832;13.816;2023-08-24T10:45:53;101505.97;;;27.02
53512;BMP280;39392;52.832;13.816;2023-08-24T10:48:21;101514.22;;;27.02
53512;BMP280;39392;52.832;13.816;2023-08-24T10:53:37;101512.31;;;27.03
53512;BMP280;39392;52.832;13.816;2023-08-24T10:56:11;101507.66;;;27.03
53512;BMP280;39392;52.832;13.816;2023-08-24T10:58:38;101510.63;;;27.02
53512;BMP280;39392;52.832;13.816;2023-08-24T11:01:05;101512.53;;;27.01
53512;BMP280;39392;52.832;13.816;2023-08-24T11:03:32;101506.81;;;27.03
53512;BMP280;39392;52.832;13.816;2023-08-24T11:05:59;101495.81;;;27.03
53512;BMP280;39392;52.832;13.816;2023-08-24T11:11:18;101490.28;;;27.03
53512;BMP280;39392;52.832;13.816;2023-08-24T11:16:39;101492.44;;;27.01
53512;BMP280;39392;52.832;13.816;2023-08-24T11:19:06;101469.53;;;27.00
53512;BMP280;39392;52.832;13.816;2023-08-24T11:21:33;101474.84;;;27.02
53512;BMP280;39392;52.832;13.816;2023-08-24T11:24:00;101465.53;;;27.03
53512;BMP280;39392;52.832;13.816;2023-08-24T11:26:29;101464.69;;;27.02
53512;BMP280;39392;52.832;13.816;2023-08-24T11:28:59;101460.88;;;27.03
53512;BMP280;39392;52.832;13.816;2023-08-24T11:31:25;101459.19;;;27.02
53512;BMP280;39392;52.832;13.816;2023-08-24T11:33:55;101464.69;;;27.02
53512;BMP280;39392;52.832;13.816;2023-08-24T11:36:22;101452.63;;;27.03
53512;BMP280;39392;52.832;13.816;2023-08-24T11:38:52;101456.22;;;27.04
53512;BMP280;39392;52.832;13.816;2023-08-24T11:41:20;101453.69;;;27.02
53512;BMP280;39392;52.832;13.816;2023-08-24T11:43:49;101448.19;;;27.02
53512;BMP280;39392;52.832;13.816;2023-08-24T11:46:17;101439.94;;;27.02
53512;BMP280;39392;52.832;13.816;2023-08-24T11:48:45;101450.09;;;27.02
53512;BMP280;39392;52.832;13.816;2023-08-24T11:51:12;101433.78;;;27.00
53512;BMP280;39392;52.832;13.816;2023-08-24T11:53:41;101436.34;;;27.02
53512;BMP280;39392;52.832;13.816;2023-08-24T11:56:08;101423.00;;;26.99
53512;BMP280;39392;52.832;13.816;2023-08-24T11:58:39;101422.78;;;27.00
53512;BMP280;39392;52.832;13.816;2023-08-24T12:01:06;101418.34;;;26.99
53512;BMP280;39392;52.832;13.816;2023-08-24T12:03:34;101412.84;;;26.99
53512;BMP280;39392;52.832;13.816;2023-08-24T12:06:01;101415.59;;;26.99
53512;BMP280;39392;52.832;13.816;2023-08-24T12:08:29;101421.09;;;26.99
53512;BMP280;39392;52.832;13.816;2023-08-24T12:10:56;101410.94;;;27.00
53512;BMP280;39392;52.832;13.816;2023-08-24T12:13:23;101399.09;;;26.99
53512;BMP280;39392;52.832;13.816;2023-08-24T12:15:52;101396.16;;;27.01
53512;BMP280;39392;52.832;13.816;2023-08-24T12:18:19;101397.19;;;27.00
53512;BMP280;39392;52.832;13.816;2023-08-24T12:20:46;101392.31;;;27.02
53512;BMP280;39392;52.832;13.816;2023-08-24T12:23:13;101391.69;;;27.06
53512;BMP280;39392;52.832;13.816;2023-08-24T12:25:43;101403.75;;;27.05
53512;BMP280;39392;52.832;13.816;2023-08-24T12:28:11;101399.28;;;27.04
53512;BMP280;39392;52.832;13.816;2023-08-24T12:35:58;101377.50;;;27.03
53512;BMP280;39392;52.832;13.816;2023-08-24T12:38:27;101370.94;;;27.04
53512;BMP280;39392;52.832;13.816;2023-08-24T12:40:53;101368.41;;;27.02
53512;BMP280;39392;52.832;13.816;2023-08-24T12:43:21;101370.50;;;27.00
53512;BMP280;39392;52.832;13.816;2023-08-24T12:45:47;101367.75;;;27.00
53512;BMP280;39392;52.832;13.816;2023-08-24T12:48:15;101362.06;;;27.02
53512;BMP280;39392;52.832;13.816;2023-08-24T12:50:41;101358.47;;;27.01
53512;BMP280;39392;52.832;13.816;2023-08-24T12:53:08;101352.31;;;26.99
53512;BMP280;39392;52.832;13.816;2023-08-24T12:55:36;101347.47;;;27.01
53512;BMP280;39392;52.832;13.816;2023-08-24T12:58:03;101344.72;;;27.01
53512;BMP280;39392;52.832;13.816;2023-08-24T13:00:30;101339.22;;;27.01
53512;BMP280;39392;52.832;13.816;2023-08-24T13:02:57;101336.66;;;27.00
53512;BMP280;39392;52.832;13.816;2023-08-24T13:05:23;101330.53;;;26.98
53512;BMP280;39392;52.832;13.816;2023-08-24T13:07:50;101331.38;;;26.98
53512;BMP280;39392;52.832;13.816;2023-08-24T13:10:18;101317.63;;;26.98
53512;BMP280;39392;52.832;13.816;2023-08-24T13:12:45;101305.78;;;26.98
53512;BMP280;39392;52.832;13.816;2023-08-24T13:15:11;101301.34;;;26.97
53512;BMP280;39392;52.832;13.816;2023-08-24T13:17:38;101304.72;;;26.99
53512;BMP280;39392;52.832;13.816;2023-08-24T13:20:05;101304.72;;;26.99
53512;BMP280;39392;52.832;13.816;2023-08-24T13:22:32;101306.41;;;27.00
53512;BMP280;39392;52.832;13.816;2023-08-24T13:24:59;101305.56;;;26.99
53512;BMP280;39392;52.832;13.816;2023-08-24T13:27:26;101303.88;;;26.98
53512;BMP280;39392;52.832;13.816;2023-08-24T13:29:52;101301.13;;;26.98
53512;BMP280;39392;52.832;13.816;2023-08-24T13:32:23;101293.94;;;26.97
53512;BMP280;39392;52.832;13.816;2023-08-24T13:34:49;101286.53;;;26.98
53512;BMP280;39392;52.832;13.816;2023-08-24T13:37:17;101279.34;;;26.97
53512;BMP280;39392;52.832;13.816;2023-08-24T13:39:43;101278.50;;;26.96
53512;BMP280;39392;52.832;13.816;2023-08-24T13:42:10;101283.13;;;26.96
53512;BMP280;39392;52.832;13.816;2023-08-24T13:44:36;101285.88;;;26.96
53512;BMP280;39392;52.832;13.816;2023-08-24T13:47:04;101279.78;;;26.94
53512;BMP280;39392;52.832;13.816;2023-08-24T13:49:30;101286.94;;;26.95
53512;BMP280;39392;52.832;13.816;2023-08-24T13:52:06;101285.03;;;26.95
53512;BMP280;39392;52.832;13.816;2023-08-24T13:54:33;101270.44;;;26.95
53512;BMP280;39392;52.832;13.816;2023-08-24T13:57:00;101265.78;;;26.95
53512;BMP280;39392;52.832;13.816;2023-08-24T13:59:27;101257.09;;;26.98
53512;BMP280;39392;52.832;13.816;2023-08-24T14:01:55;101258.59;;;27.01
53512;BMP280;39392;52.832;13.816;2023-08-24T14:04:21;101251.78;;;27.03
53512;BMP280;39392;52.832;13.816;2023-08-24T14:06:48;101263.88;;;27.02
53512;BMP280;39392;52.832;13.816;2023-08-24T14:09:15;101261.53;;;26.99
53512;BMP280;39392;52.832;13.816;2023-08-24T14:11:42;101257.34;;;26.97
53512;BMP280;39392;52.832;13.816;2023-08-24T14:14:08;101243.78;;;26.95
53512;BMP280;39392;52.832;13.816;2023-08-24T14:16:36;101241.69;;;26.97
53512;BMP280;39392;52.832;13.816;2023-08-24T14:19:03;101232.78;;;26.95